Time;durP1;ratioP1;P1;durP2;ratioP2;P2;SDS_P1;SDS_P2;PMS_P1;PMS_P2;Temp;Humidity;BMP_temperature;BMP_pressure;BME280_temperature;BME280_humidity;BME280_pressure;Samples;Min_cycle;Max_cycle;Signal;HPM_P1;HPM_P2
2021/01/18 00:01:04;;;;;;;45.77;30.60;;;0.30;99.90;;;;;;5034400;28;20310;-47
2021/01/18 00:03:29;;;;;;;41.67;28.63;;;0.30;99.90;;;;;;5034283;28;20218;-51
2021/01/18 00:05:55;;;;;;;43.37;30.20;;;0.40;99.90;;;;;;5033964;28;20184;-49
2021/01/18 00:08:20;;;;;;;42.00;29.03;;;0.40;99.90;;;;;;5033998;28;20219;-47
2021/01/18 00:10:46;;;;;;;45.30;31.27;;;0.50;99.90;;;;;;5034414;28;20226;-47
2021/01/18 00:13:11;;;;;;;45.77;30.10;;;0.40;99.90;;;;;;5034364;28;20176;-47
2021/01/18 00:15:37;;;;;;;44.87;31.93;;;0.40;99.90;;;;;;5033887;28;20188;-46
2021/01/18 00:18:02;;;;;;;44.00;30.33;;;0.40;99.90;;;;;;5033953;28;20195;-46
2021/01/18 00:20:28;;;;;;;44.70;30.20;;;0.30;99.90;;;;;;5032646;28;20267;-48
2021/01/18 00:22:53;;;;;;;48.43;32.73;;;0.30;99.90;;;;;;5033044;28;20186;-47
2021/01/18 00:25:23;;;;;;;45.30;30.30;;;0.30;99.90;;;;;;5033662;28;20202;-47
2021/01/18 00:27:49;;;;;;;47.27;31.47;;;0.30;99.90;;;;;;5034142;28;20179;-48
2021/01/18 00:30:19;;;;;;;45.37;28.57;;;0.30;99.90;;;;;;5033539;28;20492;-48
2021/01/18 00:32:45;;;;;;;42.20;29.67;;;0.30;99.90;;;;;;5029096;28;20430;-48
2021/01/18 00:35:13;;;;;;;45.37;29.90;;;0.30;99.90;;;;;;5033371;28;20411;-49
2021/01/18 00:37:47;;;;;;;44.13;29.30;;;0.40;99.90;;;;;;5013694;28;20408;-47
2021/01/18 00:40:14;;;;;;;44.30;29.53;;;0.50;99.90;;;;;;5020528;28;20501;-48
2021/01/18 00:42:41;;;;;;;43.30;29.17;;;0.50;99.90;;;;;;5033860;28;20402;-52
2021/01/18 00:45:08;;;;;;;44.23;29.80;;;0.60;99.90;;;;;;5033808;28;20398;-49
2021/01/18 00:47:43;;;;;;;43.00;30.10;;;0.60;99.90;;;;;;5033467;28;20882;-47
2021/01/18 00:50:10;;;;;;;44.47;30.20;;;0.60;99.90;;;;;;5033628;28;20410;-47
2021/01/18 00:52:38;;;;;;;46.53;29.70;;;0.70;99.90;;;;;;5033755;28;20913;-46
2021/01/18 00:55:04;;;;;;;45.37;31.07;;;0.80;99.90;;;;;;5033856;28;20486;-47
2021/01/18 00:57:33;;;;;;;39.23;27.37;;;0.80;99.90;;;;;;5033375;28;20490;-48
2021/01/18 00:59:59;;;;;;;43.17;29.23;;;0.90;99.90;;;;;;5033826;28;20191;-51
2021/01/18 01:02:25;;;;;;;41.07;28.37;;;0.80;99.90;;;;;;5033786;28;20517;-48
2021/01/18 01:04:50;;;;;;;40.60;28.50;;;0.80;99.90;;;;;;5033644;28;20203;-47
2021/01/18 01:07:16;;;;;;;43.80;29.57;;;0.90;99.90;;;;;;5034205;28;20566;-47
2021/01/18 01:09:41;;;;;;;40.80;28.20;;;0.90;99.90;;;;;;5037699;28;20622;-47
2021/01/18 01:12:07;;;;;;;39.73;27.33;;;0.90;99.90;;;;;;5037927;28;20221;-47
2021/01/18 01:14:32;;;;;;;39.63;28.37;;;0.90;99.90;;;;;;5037381;28;20656;-46
2021/01/18 01:16:58;;;;;;;40.73;28.33;;;1.00;99.90;;;;;;5037314;28;20168;-48
2021/01/18 01:19:23;;;;;;;40.27;27.87;;;1.00;99.90;;;;;;5037466;28;20196;-47
2021/01/18 01:21:49;;;;;;;42.47;28.67;;;1.00;99.90;;;;;;5037402;28;20176;-49
2021/01/18 01:24:18;;;;;;;41.10;28.27;;;1.00;99.90;;;;;;5037652;28;20184;-46
2021/01/18 01:26:44;;;;;;;43.80;30.10;;;1.00;99.90;;;;;;5037100;28;20663;-47
2021/01/18 01:29:10;;;;;;;38.87;27.73;;;0.90;99.90;;;;;;5037317;28;20533;-47
2021/01/18 01:31:35;;;;;;;38.57;26.80;;;0.90;99.90;;;;;;5037549;28;20556;-47
2021/01/18 01:34:01;;;;;;;40.53;27.90;;;1.00;99.90;;;;;;5037448;28;20655;-47
2021/01/18 01:36:26;;;;;;;37.97;27.53;;;1.00;99.90;;;;;;5037234;28;20259;-52
2021/01/18 01:38:52;;;;;;;45.23;30.07;;;1.00;99.90;;;;;;5037120;28;20188;-47
2021/01/18 01:41:17;;;;;;;40.13;27.53;;;1.00;99.90;;;;;;5036891;28;20267;-46
2021/01/18 01:43:43;;;;;;;41.47;28.93;;;0.90;99.90;;;;;;5037111;28;20182;-48
2021/01/18 01:46:09;;;;;;;44.20;29.30;;;0.90;99.90;;;;;;5036886;28;20194;-47
2021/01/18 01:48:34;;;;;;;41.63;29.23;;;0.90;99.90;;;;;;5037076;28;20200;-45
2021/01/18 01:51:00;;;;;;;44.80;30.70;;;1.00;99.90;;;;;;5036799;28;20631;-49
2021/01/18 01:53:33;;;;;;;42.93;29.37;;;1.00;99.90;;;;;;5037251;28;20171;-50
2021/01/18 01:56:00;;;;;;;46.10;30.67;;;1.00;99.90;;;;;;5036386;28;20197;-47
2021/01/18 01:58:26;;;;;;;46.03;31.37;;;1.00;99.90;;;;;;5036541;28;20422;-46
2021/01/18 02:00:53;;;;;;;43.50;29.17;;;1.00;99.90;;;;;;5036590;28;20444;-47
2021/01/18 02:03:42;;;;;;;43.67;29.23;;;1.00;99.90;;;;;;5034454;28;20450;-48
2021/01/18 02:06:09;;;;;;;43.70;28.47;;;1.00;99.90;;;;;;5034113;28;20463;-46
2021/01/18 02:08:36;;;;;;;44.30;30.77;;;0.90;99.90;;;;;;5035977;28;20484;-51
2021/01/18 02:11:02;;;;;;;41.90;29.17;;;0.90;99.90;;;;;;5034639;28;20430;-51
2021/01/18 02:13:57;;;;;;;45.40;30.70;;;0.70;99.90;;;;;;5016920;28;20795;-47
2021/01/18 02:17:02;;;;;;;47.73;30.77;;;0.60;99.90;;;;;;5036161;28;20456;-47
2021/01/18 02:20:01;;;;;;;44.20;30.40;;;0.50;99.90;;;;;;5035871;28;20430;-47
2021/01/18 02:22:45;;;;;;;46.03;30.77;;;0.40;99.90;;;;;;5033536;28;20728;-49
2021/01/18 02:25:22;;;;;;;45.90;30.93;;;0.50;99.90;;;;;;5035845;28;20419;-50
2021/01/18 02:28:09;;;;;;;44.90;29.90;;;0.60;99.90;;;;;;5035240;28;20429;-52
2021/01/18 02:30:46;;;;;;;45.03;30.00;;;0.60;99.90;;;;;;5033795;28;20418;-51
2021/01/18 02:33:50;;;;;;;42.80;29.17;;;0.60;99.90;;;;;;5035503;28;20458;-47
2021/01/18 02:36:23;;;;;;;42.30;28.50;;;0.70;99.90;;;;;;5035777;28;20410;-47
2021/01/18 02:38:54;;;;;;;42.23;29.53;;;0.80;99.90;;;;;;5035814;28;20437;-46
2021/01/18 02:41:35;;;;;;;42.13;28.27;;;0.80;99.90;;;;;;5035756;28;20410;-48
2021/01/18 02:44:05;;;;;;;45.03;29.57;;;0.80;99.90;;;;;;5035618;28;20395;-50
2021/01/18 02:46:32;;;;;;;43.67;29.30;;;0.80;99.90;;;;;;5035504;28;20457;-46
2021/01/18 02:49:00;;;;;;;42.03;30.03;;;0.80;99.90;;;;;;5035297;28;20462;-46
2021/01/18 02:51:28;;;;;;;43.47;29.70;;;0.80;99.90;;;;;;5035725;28;20405;-47
2021/01/18 02:54:01;;;;;;;41.33;28.97;;;0.80;99.90;;;;;;5035558;28;20391;-48
2021/01/18 02:56:33;;;;;;;39.07;28.43;;;0.90;99.90;;;;;;5035333;28;20801;-47
2021/01/18 02:58:59;;;;;;;40.40;28.80;;;0.90;99.90;;;;;;5035394;28;20442;-50
2021/01/18 03:02:03;;;;;;;40.47;28.63;;;0.90;99.90;;;;;;5035494;28;20407;-46
2021/01/18 03:04:43;;;;;;;42.30;29.77;;;1.00;99.90;;;;;;5024597;28;20438;-47
2021/01/18 03:07:48;;;;;;;43.73;29.47;;;1.00;99.90;;;;;;5031750;28;20442;-47
2021/01/18 03:10:31;;;;;;;42.40;29.20;;;1.00;99.90;;;;;;4995196;28;20434;-47
2021/01/18 03:13:01;;;;;;;43.03;29.50;;;1.00;99.90;;;;;;5035457;28;20732;-49
2021/01/18 03:15:33;;;;;;;46.93;31.57;;;1.00;99.90;;;;;;5035407;28;20843;-49
2021/01/18 03:18:02;;;;;;;41.83;28.73;;;1.00;99.90;;;;;;5032358;28;20533;-46
2021/01/18 03:20:29;;;;;;;42.03;28.67;;;0.90;99.90;;;;;;5035210;28;20446;-46
2021/01/18 03:23:01;;;;;;;41.33;28.83;;;0.90;99.90;;;;;;5034946;28;20410;-47
2021/01/18 03:25:27;;;;;;;39.27;27.77;;;0.80;99.90;;;;;;5035751;28;20801;-47
2021/01/18 03:27:57;;;;;;;44.23;29.27;;;0.70;99.90;;;;;;5034513;28;20922;-47
2021/01/18 03:30:23;;;;;;;39.20;27.63;;;0.70;99.90;;;;;;5034566;28;20209;-50
2021/01/18 03:32:50;;;;;;;38.90;27.77;;;0.70;99.90;;;;;;5035081;28;20508;-48
2021/01/18 03:35:16;;;;;;;38.73;27.03;;;0.70;99.90;;;;;;5034797;28;20411;-49
2021/01/18 03:37:42;;;;;;;42.27;29.37;;;0.70;99.90;;;;;;5034448;28;20878;-46
2021/01/18 03:40:08;;;;;;;43.73;30.13;;;0.70;99.90;;;;;;5031684;28;20466;-50
2021/01/18 03:42:33;;;;;;;42.40;28.93;;;0.80;99.90;;;;;;5034489;28;20670;-50
2021/01/18 03:44:59;;;;;;;40.83;27.33;;;0.80;99.90;;;;;;5034615;28;20516;-47
2021/01/18 03:47:24;;;;;;;41.17;29.40;;;0.80;99.90;;;;;;5034103;28;20535;-52
2021/01/18 03:49:50;;;;;;;41.10;29.50;;;0.80;99.90;;;;;;5031602;28;20326;-47
2021/01/18 03:52:15;;;;;;;45.50;29.93;;;0.80;99.90;;;;;;5034112;28;20548;-47
2021/01/18 03:54:41;;;;;;;42.17;28.57;;;0.70;99.90;;;;;;5033987;28;20183;-47
2021/01/18 03:57:06;;;;;;;39.07;27.67;;;0.70;99.90;;;;;;5034337;28;20183;-47
2021/01/18 03:59:32;;;;;;;40.53;28.43;;;0.60;99.90;;;;;;5034490;28;20191;-47
2021/01/18 04:01:57;;;;;;;42.93;28.47;;;0.60;99.90;;;;;;5034361;28;20225;-47
2021/01/18 04:04:23;;;;;;;43.53;28.97;;;0.60;99.90;;;;;;5034481;28;20180;-45
2021/01/18 04:06:48;;;;;;;41.33;27.63;;;0.60;99.90;;;;;;5031373;28;20249;-47
2021/01/18 04:09:14;;;;;;;41.93;29.10;;;0.60;99.90;;;;;;5033761;28;20256;-47
2021/01/18 04:11:40;;;;;;;41.43;28.30;;;0.60;99.90;;;;;;5030084;28;20651;-47
2021/01/18 04:14:05;;;;;;;41.77;28.97;;;0.70;99.90;;;;;;5032615;28;20568;-47
2021/01/18 04:16:31;;;;;;;40.03;27.37;;;0.70;99.90;;;;;;5033465;28;20188;-46
2021/01/18 04:18:57;;;;;;;42.30;28.57;;;0.70;99.90;;;;;;5033883;28;20265;-46
2021/01/18 04:21:22;;;;;;;42.70;28.40;;;0.80;99.90;;;;;;5033978;28;20646;-50
2021/01/18 04:23:48;;;;;;;41.93;28.70;;;0.80;99.90;;;;;;5033940;28;20176;-48
2021/01/18 04:26:13;;;;;;;41.17;28.10;;;0.80;99.90;;;;;;5033791;28;20214;-49
2021/01/18 04:28:40;;;;;;;44.57;29.30;;;0.90;99.90;;;;;;5034088;28;20611;-48
2021/01/18 04:31:06;;;;;;;40.50;28.33;;;0.90;99.90;;;;;;5034003;28;20176;-46
2021/01/18 04:33:31;;;;;;;42.37;29.90;;;0.90;99.90;;;;;;5033812;28;20469;-47
2021/01/18 04:35:57;;;;;;;41.07;28.17;;;0.80;99.90;;;;;;5033793;28;20229;-47
2021/01/18 04:38:24;;;;;;;40.27;29.53;;;0.90;99.90;;;;;;5035150;28;20238;-48
2021/01/18 04:40:50;;;;;;;42.63;29.93;;;0.90;99.90;;;;;;5034327;28;20275;-50
2021/01/18 04:43:16;;;;;;;42.07;29.67;;;0.90;99.90;;;;;;5033235;28;20874;-52
2021/01/18 04:45:42;;;;;;;43.83;29.40;;;0.80;99.90;;;;;;5032732;28;20286;-47
2021/01/18 04:48:09;;;;;;;41.67;28.90;;;0.80;99.90;;;;;;5033119;28;20466;-47
2021/01/18 04:50:35;;;;;;;40.83;29.00;;;0.90;99.90;;;;;;5032965;28;20407;-48
2021/01/18 04:53:07;;;;;;;44.63;29.73;;;0.90;99.90;;;;;;5033756;28;20414;-46
2021/01/18 04:55:33;;;;;;;42.50;31.10;;;0.90;99.90;;;;;;5035886;28;20183;-47
2021/01/18 04:58:10;;;;;;;46.90;33.43;;;0.80;99.90;;;;;;5035965;28;20407;-49
2021/01/18 05:00:39;;;;;;;45.43;29.93;;;0.80;99.90;;;;;;5033940;28;20616;-47
2021/01/18 05:03:06;;;;;;;38.47;27.50;;;0.70;99.90;;;;;;5033452;28;20930;-46
2021/01/18 05:05:46;;;;;;;44.27;29.87;;;0.70;99.90;;;;;;5033827;28;20427;-47
2021/01/18 05:08:40;;;;;;;40.37;28.60;;;0.70;99.90;;;;;;5033299;28;20489;-46
2021/01/18 05:11:05;;;;;;;42.10;28.80;;;0.60;99.90;;;;;;5033531;28;20411;-47
2021/01/18 05:13:31;;;;;;;44.37;29.50;;;0.60;99.90;;;;;;5035685;28;20406;-46
2021/01/18 05:15:59;;;;;;;44.57;30.80;;;0.60;99.90;;;;;;5033734;28;20168;-49
2021/01/18 05:18:35;;;;;;;45.27;30.67;;;0.70;99.90;;;;;;5033375;28;20200;-46
2021/01/18 05:21:03;;;;;;;44.63;30.03;;;0.70;99.90;;;;;;5033057;28;20407;-47
2021/01/18 05:23:28;;;;;;;43.73;29.60;;;0.80;99.90;;;;;;5033574;28;20460;-47
2021/01/18 05:26:19;;;;;;;45.00;30.53;;;0.80;99.90;;;;;;5033421;28;20415;-47
2021/01/18 05:28:46;;;;;;;47.57;32.40;;;0.90;99.90;;;;;;5022742;28;20239;-48
2021/01/18 05:31:27;;;;;;;43.43;29.80;;;0.90;99.90;;;;;;5034127;28;20964;-47
2021/01/18 05:33:57;;;;;;;43.60;29.47;;;0.90;99.90;;;;;;5034009;28;20837;-51
2021/01/18 05:36:48;;;;;;;41.80;29.37;;;0.90;99.90;;;;;;5030335;28;20458;-46
2021/01/18 05:39:14;;;;;;;42.00;28.90;;;0.90;99.90;;;;;;5031139;28;20584;-46
2021/01/18 05:41:41;;;;;;;41.73;28.70;;;0.90;99.90;;;;;;5031240;28;21013;-46
2021/01/18 05:44:08;;;;;;;44.00;28.47;;;0.90;99.90;;;;;;5032533;28;20186;-46
2021/01/18 05:46:35;;;;;;;40.70;28.53;;;0.90;99.90;;;;;;5033122;28;20450;-46
2021/01/18 05:49:17;;;;;;;44.70;31.37;;;0.90;99.90;;;;;;5034685;28;20481;-47
2021/01/18 05:51:49;;;;;;;38.37;27.93;;;0.90;99.90;;;;;;5033330;28;20418;-46
2021/01/18 05:54:21;;;;;;;38.33;26.47;;;1.00;99.90;;;;;;5035237;28;20454;-47
2021/01/18 05:56:47;;;;;;;38.53;27.30;;;1.00;99.90;;;;;;5034731;28;20476;-48
2021/01/18 05:59:20;;;;;;;38.40;27.43;;;1.00;99.90;;;;;;5036273;28;20434;-47
2021/01/18 06:01:47;;;;;;;40.33;28.50;;;1.00;99.90;;;;;;5033495;28;20287;-47
2021/01/18 06:04:15;;;;;;;41.53;27.50;;;1.00;99.90;;;;;;5035911;28;20434;-47
2021/01/18 06:06:41;;;;;;;39.87;26.90;;;1.00;99.90;;;;;;5037783;28;20453;-51
2021/01/18 06:09:07;;;;;;;43.83;28.53;;;1.00;99.90;;;;;;5036322;28;20489;-46
2021/01/18 06:11:33;;;;;;;40.33;27.70;;;0.90;99.90;;;;;;5036519;28;20473;-47
2021/01/18 06:14:02;;;;;;;39.27;28.00;;;0.90;99.90;;;;;;5036411;28;20199;-46
2021/01/18 06:16:29;;;;;;;39.23;26.27;;;0.90;99.90;;;;;;5036154;28;20174;-46
2021/01/18 06:19:03;;;;;;;39.33;27.80;;;0.90;99.90;;;;;;5035973;28;20443;-47
2021/01/18 06:21:40;;;;;;;39.50;27.50;;;0.90;99.90;;;;;;5036351;28;20501;-46
2021/01/18 06:24:19;;;;;;;42.27;27.47;;;0.90;99.90;;;;;;5038083;28;20430;-48
2021/01/18 06:26:45;;;;;;;38.90;27.50;;;1.00;99.90;;;;;;5033009;28;20496;-46
2021/01/18 06:29:37;;;;;;;38.83;28.67;;;1.00;99.90;;;;;;5035712;28;20493;-47
2021/01/18 06:32:04;;;;;;;39.17;27.83;;;0.90;99.90;;;;;;5035884;28;20411;-47
2021/01/18 06:34:30;;;;;;;40.13;27.70;;;1.00;99.90;;;;;;5036066;28;20422;-47
2021/01/18 06:36:56;;;;;;;39.17;27.53;;;0.90;99.90;;;;;;5035779;28;20770;-47
2021/01/18 06:39:27;;;;;;;38.23;26.80;;;0.90;99.90;;;;;;5033547;28;20211;-48
2021/01/18 06:42:02;;;;;;;41.13;27.97;;;0.90;99.90;;;;;;5037568;28;20414;-48
2021/01/18 06:44:39;;;;;;;42.23;28.90;;;0.80;99.90;;;;;;5035354;28;20454;-47
2021/01/18 06:47:25;;;;;;;41.23;26.90;;;0.80;99.90;;;;;;5034414;28;20418;-46
2021/01/18 06:49:56;;;;;;;42.40;28.53;;;0.80;99.90;;;;;;5035192;28;20470;-46
2021/01/18 06:52:51;;;;;;;40.37;29.03;;;0.60;99.90;;;;;;5035017;28;20446;-45
2021/01/18 06:55:24;;;;;;;38.47;27.67;;;0.50;99.90;;;;;;5027826;28;20926;-46
2021/01/18 06:58:15;;;;;;;43.00;29.20;;;0.50;99.90;;;;;;5035221;28;20414;-47
2021/01/18 07:00:43;;;;;;;40.67;28.80;;;0.70;99.90;;;;;;5035814;28;20426;-46
2021/01/18 07:03:53;;;;;;;41.43;27.53;;;0.80;99.90;;;;;;5034540;28;20927;-46
2021/01/18 07:06:23;;;;;;;40.17;28.20;;;0.80;99.90;;;;;;4972616;28;20445;-47
2021/01/18 07:08:51;;;;;;;40.20;28.77;;;0.80;99.90;;;;;;4969534;28;20861;-50
2021/01/18 07:11:17;;;;;;;42.63;29.83;;;0.90;99.90;;;;;;4973343;28;20472;-46
2021/01/18 07:13:48;;;;;;;45.83;32.20;;;0.90;99.90;;;;;;4973423;28;20468;-49
2021/01/18 07:16:20;;;;;;;42.33;29.27;;;1.00;99.90;;;;;;4974450;28;20276;-45
2021/01/18 07:18:56;;;;;;;43.67;30.10;;;1.00;99.90;;;;;;4973745;28;20461;-47
2021/01/18 07:21:26;;;;;;;42.80;30.07;;;1.10;99.90;;;;;;4974270;28;20460;-46
2021/01/18 07:23:57;;;;;;;41.77;28.77;;;1.10;99.90;;;;;;4974014;28;20445;-45
2021/01/18 07:26:37;;;;;;;41.57;28.43;;;1.10;99.90;;;;;;4973861;28;20429;-48
2021/01/18 07:29:08;;;;;;;42.60;29.43;;;1.10;99.90;;;;;;4974145;28;20457;-47
2021/01/18 07:31:35;;;;;;;41.37;28.70;;;1.20;99.90;;;;;;4974159;28;20488;-49
2021/01/18 07:34:02;;;;;;;41.93;29.53;;;1.30;99.90;;;;;;4974068;28;20495;-45
2021/01/18 07:36:30;;;;;;;48.90;31.43;;;1.20;99.90;;;;;;4992020;28;20966;-45
2021/01/18 07:38:56;;;;;;;40.60;28.33;;;1.20;99.90;;;;;;5033902;28;20469;-47
2021/01/18 07:41:30;;;;;;;44.70;29.83;;;1.20;99.90;;;;;;5035121;28;20415;-47
2021/01/18 07:43:56;;;;;;;43.13;29.30;;;1.20;99.90;;;;;;5034489;28;20832;-47
2021/01/18 07:46:30;;;;;;;41.10;28.37;;;1.20;99.90;;;;;;5034731;28;20494;-47
2021/01/18 07:49:20;;;;;;;45.20;30.20;;;1.30;99.90;;;;;;5034426;28;20986;-47
2021/01/18 07:51:46;;;;;;;39.50;27.87;;;1.30;99.90;;;;;;5030499;28;20430;-48
2021/01/18 07:54:47;;;;;;;42.20;28.83;;;1.30;99.90;;;;;;5035158;28;20410;-47
2021/01/18 07:57:26;;;;;;;39.97;27.47;;;1.30;99.90;;;;;;4962695;28;20610;-50
2021/01/18 08:00:18;;;;;;;37.87;26.33;;;1.40;99.90;;;;;;4943991;28;20490;-51
2021/01/18 08:02:55;;;;;;;43.53;28.57;;;1.40;99.90;;;;;;4945028;29;20446;-49
2021/01/18 08:05:21;;;;;;;40.67;27.80;;;1.50;99.90;;;;;;4953743;29;20495;-47
2021/01/18 08:08:09;;;;;;;41.60;28.03;;;1.40;99.90;;;;;;4955010;29;20496;-49
2021/01/18 08:10:56;;;;;;;45.17;29.63;;;1.40;99.90;;;;;;4949380;29;20194;-49
2021/01/18 08:13:44;;;;;;;41.63;28.47;;;1.10;99.90;;;;;;4956567;28;20464;-48
2021/01/18 08:16:36;;;;;;;42.50;29.20;;;0.90;99.90;;;;;;4962705;28;20426;-52
2021/01/18 08:19:12;;;;;;;45.23;30.93;;;0.80;99.90;;;;;;4961497;28;20438;-48
2021/01/18 08:21:46;;;;;;;43.37;29.67;;;0.60;99.90;;;;;;4954795;29;20489;-50
2021/01/18 08:24:23;;;;;;;47.13;30.60;;;0.50;99.90;;;;;;4953599;29;20466;-46
2021/01/18 08:27:03;;;;;;;43.20;28.83;;;0.50;99.90;;;;;;4954615;29;20501;-54
2021/01/18 08:29:48;;;;;;;45.47;31.33;;;0.50;99.90;;;;;;4949303;29;20858;-52
2021/01/18 08:32:23;;;;;;;45.70;31.23;;;0.70;99.90;;;;;;5023549;28;20516;-47
2021/01/18 08:34:50;;;;;;;47.10;32.57;;;0.80;99.90;;;;;;5034778;28;20484;-50
2021/01/18 08:37:16;;;;;;;45.03;30.30;;;1.00;99.90;;;;;;5036700;28;20429;-49
2021/01/18 08:39:57;;;;;;;42.17;29.37;;;1.10;99.90;;;;;;5033911;28;20458;-52
2021/01/18 08:42:24;;;;;;;42.87;29.77;;;1.20;99.90;;;;;;5036133;28;20183;-48
2021/01/18 08:44:59;;;;;;;44.37;29.53;;;1.10;99.90;;;;;;5037308;28;20430;-49
2021/01/18 08:47:34;;;;;;;46.47;31.27;;;1.10;99.90;;;;;;5035527;28;20451;-50
2021/01/18 08:50:27;;;;;;;43.40;30.27;;;1.00;99.90;;;;;;5022583;28;20492;-51
2021/01/18 08:53:34;;;;;;;44.27;29.67;;;1.00;99.90;;;;;;5034250;28;20448;-45
2021/01/18 08:56:05;;;;;;;50.53;33.07;;;1.00;99.90;;;;;;5017446;28;20430;-48
2021/01/18 08:58:37;;;;;;;48.43;31.30;;;1.10;99.90;;;;;;5034523;28;20447;-49
2021/01/18 09:01:09;;;;;;;48.33;33.00;;;1.00;99.90;;;;;;5021305;28;20415;-50
2021/01/18 09:03:34;;;;;;;45.93;29.77;;;0.90;99.90;;;;;;5034028;28;20438;-49
2021/01/18 09:06:00;;;;;;;44.53;29.97;;;0.90;99.90;;;;;;5033459;28;20978;-47
2021/01/18 09:08:28;;;;;;;44.40;30.70;;;0.80;99.90;;;;;;5032005;28;20667;-51
2021/01/18 09:10:58;;;;;;;47.70;32.43;;;0.80;99.90;;;;;;5032222;28;20516;-46
2021/01/18 09:13:32;;;;;;;45.40;30.87;;;0.70;99.90;;;;;;5033189;28;20474;-47
2021/01/18 09:16:00;;;;;;;44.80;29.53;;;0.80;99.90;;;;;;5032919;28;20461;-46
2021/01/18 09:18:27;;;;;;;48.47;32.80;;;1.00;99.90;;;;;;5034918;28;20458;-48
2021/01/18 09:20:55;;;;;;;41.77;30.00;;;0.90;99.90;;;;;;5036005;28;20429;-50
2021/01/18 09:23:21;;;;;;;44.10;30.13;;;1.00;99.90;;;;;;5025637;28;20810;-49
2021/01/18 09:25:55;;;;;;;42.87;29.37;;;0.70;99.90;;;;;;5020232;28;20469;-46
2021/01/18 09:28:21;;;;;;;49.00;31.90;;;1.10;99.90;;;;;;5034849;28;20477;-49
2021/01/18 09:30:47;;;;;;;47.27;31.93;;;1.10;99.90;;;;;;5038095;28;20449;-54
2021/01/18 09:33:12;;;;;;;47.30;32.30;;;1.10;99.90;;;;;;5038610;28;20192;-51
2021/01/18 09:35:43;;;;;;;51.57;32.47;;;1.00;99.90;;;;;;5041195;28;20203;-49
2021/01/18 09:38:11;;;;;;;44.13;29.93;;;0.90;99.90;;;;;;5039751;28;20241;-45
2021/01/18 09:40:39;;;;;;;48.10;32.30;;;1.00;99.90;;;;;;5034927;28;20807;-47
2021/01/18 09:43:06;;;;;;;43.83;30.10;;;1.00;99.90;;;;;;5040579;28;20437;-47
2021/01/18 09:45:33;;;;;;;46.50;30.70;;;1.10;99.90;;;;;;5041658;28;20905;-47
2021/01/18 09:48:04;;;;;;;50.63;34.13;;;1.10;99.90;;;;;;5040726;28;20429;-48
2021/01/18 09:50:30;;;;;;;48.10;33.30;;;1.10;99.90;;;;;;5034453;28;20533;-47
2021/01/18 09:52:57;;;;;;;48.07;32.50;;;1.00;99.90;;;;;;5039507;28;20419;-46
2021/01/18 09:55:30;;;;;;;46.27;32.23;;;1.10;99.90;;;;;;5036180;28;20737;-47
2021/01/18 09:58:27;;;;;;;43.63;30.37;;;1.10;99.90;;;;;;5038074;28;20494;-45
2021/01/18 10:00:54;;;;;;;46.53;32.37;;;1.00;99.90;;;;;;5022387;28;21001;-45
2021/01/18 10:03:27;;;;;;;46.57;30.47;;;1.00;99.90;;;;;;5037654;28;20433;-48
2021/01/18 10:06:15;;;;;;;44.10;29.50;;;0.90;99.90;;;;;;5036210;28;20426;-52
2021/01/18 10:08:43;;;;;;;46.27;32.07;;;0.80;99.90;;;;;;5036468;28;20532;-50
2021/01/18 10:11:09;;;;;;;45.87;31.67;;;0.80;99.90;;;;;;5035589;28;20945;-47
2021/01/18 10:13:35;;;;;;;47.90;33.50;;;0.70;99.90;;;;;;5041843;28;20562;-51
2021/01/18 10:16:09;;;;;;;51.17;33.70;;;0.70;99.90;;;;;;5017094;28;20183;-51
2021/01/18 10:18:38;;;;;;;48.23;31.67;;;0.70;99.90;;;;;;5037800;28;20450;-50
2021/01/18 10:21:05;;;;;;;43.97;30.97;;;0.70;99.90;;;;;;5032754;28;20430;-49
2021/01/18 10:23:47;;;;;;;47.03;31.43;;;0.70;99.90;;;;;;5035838;28;20468;-47
2021/01/18 10:26:13;;;;;;;45.60;31.27;;;0.80;99.90;;;;;;5032639;28;20529;-48
2021/01/18 10:28:46;;;;;;;49.10;33.13;;;0.90;99.90;;;;;;5038322;28;20888;-52
2021/01/18 10:31:27;;;;;;;52.93;34.40;;;0.90;99.90;;;;;;5015865;28;20196;-47
2021/01/18 10:34:11;;;;;;;48.60;38.50;;;1.00;99.90;;;;;;5034407;28;20928;-48
2021/01/18 10:36:37;;;;;;;49.77;36.33;;;1.20;99.90;;;;;;5034807;28;20197;-49
2021/01/18 10:39:04;;;;;;;48.63;34.53;;;1.30;99.90;;;;;;5037315;28;20787;-45
2021/01/18 10:41:32;;;;;;;47.43;32.80;;;1.50;99.90;;;;;;5030264;28;20795;-47
2021/01/18 10:44:06;;;;;;;51.87;35.77;;;1.50;99.90;;;;;;5038929;28;20410;-49
2021/01/18 10:46:33;;;;;;;46.80;32.83;;;1.50;99.90;;;;;;5037143;28;20414;-51
2021/01/18 10:49:00;;;;;;;47.27;31.87;;;1.60;99.90;;;;;;5038347;28;20898;-54
2021/01/18 10:51:27;;;;;;;49.37;32.40;;;1.60;99.90;;;;;;5037545;28;20426;-47
2021/01/18 10:54:00;;;;;;;45.27;30.70;;;1.60;99.90;;;;;;5034059;28;20411;-52
2021/01/18 10:56:33;;;;;;;46.67;31.80;;;1.60;99.90;;;;;;5002590;28;20427;-49
2021/01/18 10:58:59;;;;;;;47.07;32.47;;;1.70;99.90;;;;;;5034626;28;20451;-50
2021/01/18 11:01:25;;;;;;;43.43;30.67;;;1.90;99.90;;;;;;5021456;28;20419;-48
2021/01/18 11:03:52;;;;;;;48.00;30.43;;;2.10;99.90;;;;;;5034506;28;20431;-45
2021/01/18 11:06:20;;;;;;;52.80;31.70;;;2.10;99.90;;;;;;5020414;28;20269;-49
2021/01/18 11:08:52;;;;;;;56.33;37.10;;;2.10;99.90;;;;;;5037076;28;20597;-52
2021/01/18 11:11:23;;;;;;;48.73;32.83;;;1.90;99.90;;;;;;5035231;28;20425;-46
2021/01/18 11:14:03;;;;;;;50.10;33.80;;;1.90;99.90;;;;;;5032082;28;20415;-51
2021/01/18 11:16:29;;;;;;;47.30;33.03;;;1.80;99.90;;;;;;5016473;28;20419;-51
2021/01/18 11:19:06;;;;;;;47.13;32.33;;;1.80;99.90;;;;;;5017887;28;20438;-45
2021/01/18 11:21:32;;;;;;;47.20;31.77;;;1.80;99.90;;;;;;5017778;28;20437;-49
2021/01/18 11:23:58;;;;;;;48.97;33.17;;;1.70;99.90;;;;;;5018848;28;20418;-51
2021/01/18 11:26:24;;;;;;;50.77;35.50;;;1.60;99.90;;;;;;5020047;28;20423;-47
2021/01/18 11:28:50;;;;;;;49.97;33.17;;;2.60;99.90;;;;;;5036246;28;20207;-50
2021/01/18 11:31:16;;;;;;;47.03;32.30;;;1.80;99.90;;;;;;5001373;28;20859;-45
2021/01/18 11:33:44;;;;;;;46.57;32.67;;;1.80;99.90;;;;;;5034493;28;20701;-46
2021/01/18 11:36:12;;;;;;;47.97;31.80;;;1.80;99.90;;;;;;5018793;28;20514;-49
2021/01/18 11:38:39;;;;;;;46.93;32.43;;;1.90;99.90;;;;;;5019192;28;20426;-44
2021/01/18 11:41:04;;;;;;;45.53;31.30;;;1.90;99.90;;;;;;5019542;28;20522;-45
2021/01/18 11:43:34;;;;;;;49.00;33.80;;;1.90;99.90;;;;;;5033786;28;20690;-45
2021/01/18 11:46:00;;;;;;;45.60;30.90;;;1.90;99.90;;;;;;5014806;28;20195;-53
2021/01/18 11:48:26;;;;;;;41.53;27.60;;;1.90;99.90;;;;;;5014783;28;20211;-47
2021/01/18 11:50:52;;;;;;;46.67;31.60;;;2.00;99.90;;;;;;5018085;28;20449;-46
2021/01/18 11:53:19;;;;;;;43.67;29.63;;;2.10;99.90;;;;;;5013175;28;20258;-46
2021/01/18 11:55:49;;;;;;;43.67;30.83;;;2.00;99.90;;;;;;5034786;28;20187;-44
2021/01/18 11:58:15;;;;;;;48.07;31.17;;;2.00;99.90;;;;;;5033437;28;20202;-46
2021/01/18 12:00:41;;;;;;;49.90;32.17;;;1.90;99.90;;;;;;5031371;28;20176;-47
2021/01/18 12:03:07;;;;;;;44.90;30.47;;;1.80;99.90;;;;;;5014126;28;20184;-45
2021/01/18 12:05:32;;;;;;;49.63;32.17;;;1.70;99.90;;;;;;5029973;28;20600;-46
2021/01/18 12:08:02;;;;;;;45.77;31.80;;;1.90;99.90;;;;;;5030535;28;20191;-50
2021/01/18 12:10:27;;;;;;;45.57;29.97;;;2.10;99.90;;;;;;5032695;28;20195;-47
2021/01/18 12:12:53;;;;;;;38.97;26.80;;;2.30;99.90;;;;;;5014493;28;20187;-49
2021/01/18 12:15:19;;;;;;;38.87;26.57;;;2.30;99.90;;;;;;5032339;28;20640;-45
2021/01/18 12:17:45;;;;;;;37.00;26.93;;;2.20;99.90;;;;;;5014320;28;20176;-47
2021/01/18 12:20:13;;;;;;;40.70;28.20;;;2.10;99.90;;;;;;5015385;28;20268;-50
2021/01/18 12:22:39;;;;;;;42.47;28.20;;;2.10;99.90;;;;;;5033478;28;20179;-45
2021/01/18 12:25:05;;;;;;;40.47;28.07;;;2.00;99.90;;;;;;5037126;28;20195;-48
2021/01/18 12:27:31;;;;;;;40.97;26.90;;;1.90;99.90;;;;;;5010308;28;20898;-44
2021/01/18 12:29:58;;;;;;;42.90;28.40;;;2.00;99.90;;;;;;5014627;28;20299;-47
2021/01/18 12:32:23;;;;;;;40.40;28.23;;;2.00;99.90;;;;;;5014928;28;20196;-48
2021/01/18 12:34:49;;;;;;;38.53;27.17;;;2.00;99.90;;;;;;5001077;28;20192;-45
2021/01/18 12:37:15;;;;;;;40.27;28.03;;;2.00;99.90;;;;;;4999442;28;20644;-51
2021/01/18 12:39:40;;;;;;;40.40;28.07;;;2.00;99.90;;;;;;5015810;28;20223;-46
2021/01/18 12:42:07;;;;;;;39.93;28.10;;;2.00;99.90;;;;;;5032438;28;20259;-47
2021/01/18 12:44:33;;;;;;;39.77;27.60;;;2.00;99.90;;;;;;5033838;28;20245;-46
2021/01/18 12:47:00;;;;;;;42.23;27.27;;;2.10;99.90;;;;;;5032999;28;20944;-48
2021/01/18 12:49:25;;;;;;;44.27;28.97;;;2.00;99.90;;;;;;5032088;28;20607;-48
2021/01/18 12:51:51;;;;;;;47.73;29.90;;;2.00;99.90;;;;;;5029015;28;20196;-50
2021/01/18 12:54:17;;;;;;;41.87;27.87;;;2.00;99.90;;;;;;4998085;28;20274;-45